sensor_id;sensor_type;location;lat;lon;timestamp;pressure;altitude;pressure_sealevel;temperature;humidity
15272;BME280;7737;51.578;7.268;2022-08-04T16:57:52;100539.03;;;30.32;62.73
15272;BME280;7737;51.578;7.268;2022-08-04T17:00:27;100544.91;;;30.22;63.77
15272;BME280;7737;51.578;7.268;2022-08-04T17:02:54;100532.53;;;29.79;63.45
15272;BME280;7737;51.578;7.268;2022-08-04T17:05:22;100519.38;;;30.22;63.79
15272;BME280;7737;51.578;7.268;2022-08-04T17:07:50;100528.44;;;29.62;64.08
15272;BME280;7737;51.578;7.268;2022-08-04T17:10:18;100532.69;;;29.71;65.39
15272;BME280;7737;51.578;7.268;2022-08-04T17:12:44;100548.41;;;29.49;65.27
15272;BME280;7737;51.578;7.268;2022-08-04T17:15:20;100551.91;;;29.77;65.49
15272;BME280;7737;51.578;7.268;2022-08-04T17:17:47;100547.56;;;29.48;65.84
15272;BME280;7737;51.578;7.268;2022-08-04T17:20:14;100555.69;;;29.35;66.21
15272;BME280;7737;51.578;7.268;2022-08-04T17:22:41;100562.22;;;29.34;66.13
15272;BME280;7737;51.578;7.268;2022-08-04T17:25:08;100553.63;;;29.78;67.00
15272;BME280;7737;51.578;7.268;2022-08-04T17:27:35;100544.75;;;29.42;65.57
15272;BME280;7737;51.578;7.268;2022-08-04T17:30:02;100542.69;;;29.16;64.89
15272;BME280;7737;51.578;7.268;2022-08-04T17:32:31;100557.97;;;29.25;66.61
15272;BME280;7737;51.578;7.268;2022-08-04T17:34:59;100552.03;;;29.22;65.07
15272;BME280;7737;51.578;7.268;2022-08-04T17:37:26;100567.09;;;29.11;65.50
15272;BME280;7737;51.578;7.268;2022-08-04T17:40:05;100567.13;;;29.18;65.37
15272;BME280;7737;51.578;7.268;2022-08-04T17:42:32;100566.25;;;28.83;65.90
15272;BME280;7737;51.578;7.268;2022-08-04T17:45:06;100578.50;;;28.66;67.25
15272;BME280;7737;51.578;7.268;2022-08-04T17:47:33;100586.19;;;28.77;69.04
15272;BME280;7737;51.578;7.268;2022-08-04T17:50:23;100579.00;;;28.76;68.66
15272;BME280;7737;51.578;7.268;2022-08-04T17:53:00;100609.88;;;28.49;70.54
15272;BME280;7737;51.578;7.268;2022-08-04T17:55:36;100618.47;;;28.46;72.31
15272;BME280;7737;51.578;7.268;2022-08-04T17:58:17;100623.75;;;28.11;74.99
15272;BME280;7737;51.578;7.268;2022-08-04T18:00:44;100635.97;;;28.15;76.52
15272;BME280;7737;51.578;7.268;2022-08-04T18:03:24;100637.84;;;28.00;77.96
15272;BME280;7737;51.578;7.268;2022-08-04T18:05:52;100650.22;;;27.82;79.92
15272;BME280;7737;51.578;7.268;2022-08-04T18:08:23;100643.91;;;28.10;82.13
15272;BME280;7737;51.578;7.268;2022-08-04T18:10:52;100643.63;;;27.76;81.28
15272;BME280;7737;51.578;7.268;2022-08-04T18:13:19;100635.06;;;27.79;82.81
15272;BME280;7737;51.578;7.268;2022-08-04T18:15:46;100640.13;;;27.53;83.69
15272;BME280;7737;51.578;7.268;2022-08-04T18:18:17;100648.25;;;27.61;85.10
15272;BME280;7737;51.578;7.268;2022-08-04T18:20:46;100647.88;;;27.64;84.96
15272;BME280;7737;51.578;7.268;2022-08-04T18:23:13;100656.53;;;27.30;86.89
15272;BME280;7737;51.578;7.268;2022-08-04T18:25:44;100662.53;;;27.48;87.48
15272;BME280;7737;51.578;7.268;2022-08-04T18:28:11;100662.06;;;27.22;88.61
15272;BME280;7737;51.578;7.268;2022-08-04T18:30:39;100663.06;;;27.06;89.95
15272;BME280;7737;51.578;7.268;2022-08-04T18:33:06;100663.75;;;27.08;92.88
15272;BME280;7737;51.578;7.268;2022-08-04T18:35:33;100676.47;;;26.93;93.70
15272;BME280;7737;51.578;7.268;2022-08-04T18:38:02;100688.88;;;26.73;95.97
15272;BME280;7737;51.578;7.268;2022-08-04T18:40:30;100684.50;;;26.95;96.93
15272;BME280;7737;51.578;7.268;2022-08-04T18:42:57;100685.19;;;26.66;97.18
15272;BME280;7737;51.578;7.268;2022-08-04T18:45:24;100688.56;;;26.68;98.97
15272;BME280;7737;51.578;7.268;2022-08-04T18:47:51;100679.41;;;26.61;100.00
15272;BME280;7737;51.578;7.268;2022-08-04T18:50:17;100677.50;;;26.39;100.00
15272;BME280;7737;51.578;7.268;2022-08-04T18:52:44;100677.25;;;26.48;100.00
15272;BME280;7737;51.578;7.268;2022-08-04T18:55:13;100675.78;;;26.38;100.00
15272;BME280;7737;51.578;7.268;2022-08-04T18:57:40;100678.91;;;26.27;100.00
15272;BME280;7737;51.578;7.268;2022-08-04T19:00:08;100680.84;;;26.18;100.00
15272;BME280;7737;51.578;7.268;2022-08-04T19:02:34;100686.16;;;26.03;100.00
15272;BME280;7737;51.578;7.268;2022-08-04T19:05:01;100688.84;;;26.20;100.00
15272;BME280;7737;51.578;7.268;2022-08-04T19:07:27;100685.91;;;26.21;100.00
15272;BME280;7737;51.578;7.268;2022-08-04T19:09:54;100692.25;;;26.06;100.00
15272;BME280;7737;51.578;7.268;2022-08-04T19:12:22;100693.13;;;26.06;100.00
15272;BME280;7737;51.578;7.268;2022-08-04T19:14:49;100687.31;;;26.09;100.00
15272;BME280;7737;51.578;7.268;2022-08-04T19:17:16;100696.16;;;26.11;100.00
15272;BME280;7737;51.578;7.268;2022-08-04T19:19:42;100697.38;;;26.09;100.00
15272;BME280;7737;51.578;7.268;2022-08-04T19:22:09;100689.28;;;25.84;100.00
15272;BME280;7737;51.578;7.268;2022-08-04T19:24:35;100699.19;;;25.69;100.00
15272;BME280;7737;51.578;7.268;2022-08-04T19:27:03;100694.38;;;25.87;100.00
15272;BME280;7737;51.578;7.268;2022-08-04T19:29:32;100693.09;;;25.59;100.00
15272;BME280;7737;51.578;7.268;2022-08-04T19:31:58;100694.75;;;25.68;100.00
15272;BME280;7737;51.578;7.268;2022-08-04T19:34:25;100697.50;;;25.60;100.00
15272;BME280;7737;51.578;7.268;2022-08-04T19:36:51;100701.59;;;25.40;100.00
15272;BME280;7737;51.578;7.268;2022-08-04T19:39:18;100702.97;;;25.28;100.00
15272;BME280;7737;51.578;7.268;2022-08-04T19:41:45;100708.91;;;25.31;100.00
15272;BME280;7737;51.578;7.268;2022-08-04T19:44:13;100710.63;;;25.24;100.00
15272;BME280;7737;51.578;7.268;2022-08-04T19:46:41;100709.94;;;25.30;100.00
15272;BME280;7737;51.578;7.268;2022-08-04T19:49:10;100714.34;;;25.39;100.00
15272;BME280;7737;51.578;7.268;2022-08-04T19:51:37;100718.97;;;25.31;100.00
15272;BME280;7737;51.578;7.268;2022-08-04T19:54:04;100717.06;;;25.23;100.00
15272;BME280;7737;51.578;7.268;2022-08-04T19:56:31;100730.34;;;25.18;100.00
15272;BME280;7737;51.578;7.268;2022-08-04T19:58:58;100724.22;;;25.16;100.00
15272;BME280;7737;51.578;7.268;2022-08-04T20:01:25;100726.09;;;25.24;100.00
15272;BME280;7737;51.578;7.268;2022-08-04T20:03:52;100733.06;;;25.26;100.00
15272;BME280;7737;51.578;7.268;2022-08-04T20:06:19;100738.16;;;25.13;100.00
15272;BME280;7737;51.578;7.268;2022-08-04T20:08:45;100743.13;;;25.10;100.00
15272;BME280;7737;51.578;7.268;2022-08-04T20:11:12;100739.34;;;25.03;100.00
15272;BME280;7737;51.578;7.268;2022-08-04T20:13:39;100748.66;;;24.84;100.00
15272;BME280;7737;51.578;7.268;2022-08-04T20:16:05;100746.13;;;24.83;100.00
15272;BME280;7737;51.578;7.268;2022-08-04T20:18:32;100746.81;;;24.85;100.00
15272;BME280;7737;51.578;7.268;2022-08-04T20:21:00;100741.63;;;24.73;100.00
15272;BME280;7737;51.578;7.268;2022-08-04T20:23:26;100739.41;;;24.61;100.00
15272;BME280;7737;51.578;7.268;2022-08-04T20:25:53;100739.91;;;24.56;100.00
15272;BME280;7737;51.578;7.268;2022-08-04T20:28:19;100743.97;;;24.52;100.00
15272;BME280;7737;51.578;7.268;2022-08-04T20:30:47;100748.41;;;24.61;100.00
15272;BME280;7737;51.578;7.268;2022-08-04T20:33:13;100749.44;;;24.68;100.00
15272;BME280;7737;51.578;7.268;2022-08-04T20:35:40;100749.44;;;24.68;100.00
15272;BME280;7737;51.578;7.268;2022-08-04T20:38:08;100750.13;;;24.70;100.00
15272;BME280;7737;51.578;7.268;2022-08-04T20:40:35;100757.91;;;24.57;100.00
15272;BME280;7737;51.578;7.268;2022-08-04T20:43:01;100761.78;;;24.47;100.00
15272;BME280;7737;51.578;7.268;2022-08-04T20:45:28;100773.72;;;24.20;100.00
15272;BME280;7737;51.578;7.268;2022-08-04T20:47:55;100776.09;;;24.23;100.00
15272;BME280;7737;51.578;7.268;2022-08-04T20:50:22;100771.06;;;24.36;100.00
15272;BME280;7737;51.578;7.268;2022-08-04T20:52:48;100769.72;;;24.32;100.00
15272;BME280;7737;51.578;7.268;2022-08-04T20:55:16;100776.84;;;24.33;100.00
15272;BME280;7737;51.578;7.268;2022-08-04T20:57:43;100778.53;;;24.34;100.00
15272;BME280;7737;51.578;7.268;2022-08-04T21:00:10;100785.84;;;24.34;100.00
15272;BME280;7737;51.578;7.268;2022-08-04T21:02:37;100795.66;;;24.27;100.00
15272;BME280;7737;51.578;7.268;2022-08-04T21:05:04;100794.81;;;24.26;100.00
15272;BME280;7737;51.578;7.268;2022-08-04T21:07:31;100794.00;;;24.08;100.00
15272;BME280;7737;51.578;7.268;2022-08-04T21:09:57;100804.59;;;24.11;100.00
15272;BME280;7737;51.578;7.268;2022-08-04T21:12:25;100796.88;;;23.81;100.00
15272;BME280;7737;51.578;7.268;2022-08-04T21:14:52;100794.09;;;23.73;100.00
15272;BME280;7737;51.578;7.268;2022-08-04T21:17:18;100808.84;;;23.70;100.00
15272;BME280;7737;51.578;7.268;2022-08-04T21:19:45;100810.19;;;23.66;100.00
15272;BME280;7737;51.578;7.268;2022-08-04T21:22:12;100812.28;;;23.54;100.00
15272;BME280;7737;51.578;7.268;2022-08-04T21:24:39;100811.22;;;23.47;100.00
15272;BME280;7737;51.578;7.268;2022-08-04T21:27:05;100826.09;;;23.43;100.00
15272;BME280;7737;51.578;7.268;2022-08-04T21:29:33;100837.59;;;23.37;100.00
15272;BME280;7737;51.578;7.268;2022-08-04T21:32:00;100836.41;;;23.40;100.00
15272;BME280;7737;51.578;7.268;2022-08-04T21:34:28;100837.59;;;23.37;100.00
15272;BME280;7737;51.578;7.268;2022-08-04T21:36:54;100844.97;;;23.35;100.00
15272;BME280;7737;51.578;7.268;2022-08-04T21:39:21;100852.59;;;23.32;100.00
15272;BME280;7737;51.578;7.268;2022-08-04T21:41:48;100866.41;;;23.38;100.00
15272;BME280;7737;51.578;7.268;2022-08-04T21:44:14;100862.59;;;23.49;100.00
15272;BME280;7737;51.578;7.268;2022-08-04T21:46:42;100863.25;;;23.16;100.00
15272;BME280;7737;51.578;7.268;2022-08-04T21:49:09;100864.72;;;23.37;100.00
15272;BME280;7737;51.578;7.268;2022-08-04T21:51:36;100871.84;;;23.38;100.00
15272;BME280;7737;51.578;7.268;2022-08-04T21:54:05;100885.41;;;23.38;100.00
15272;BME280;7737;51.578;7.268;2022-08-04T21:56:31;100890.41;;;23.33;100.00
15272;BME280;7737;51.578;7.268;2022-08-04T21:58:58;100885.66;;;23.45;100.00
15272;BME280;7737;51.578;7.268;2022-08-04T22:01:25;100873.03;;;23.26;100.00
15272;BME280;7737;51.578;7.268;2022-08-04T22:03:53;100875.47;;;23.29;100.00
15272;BME280;7737;51.578;7.268;2022-08-04T22:06:20;100879.47;;;23.25;100.00
15272;BME280;7737;51.578;7.268;2022-08-04T22:08:47;100889.72;;;23.31;100.00
15272;BME280;7737;51.578;7.268;2022-08-04T22:11:26;100887.81;;;23.41;100.00
15272;BME280;7737;51.578;7.268;2022-08-04T22:13:55;100895.47;;;23.01;100.00
15272;BME280;7737;51.578;7.268;2022-08-04T22:16:22;100892.44;;;23.04;100.00
15272;BME280;7737;51.578;7.268;2022-08-04T22:18:49;100892.63;;;23.02;100.00
15272;BME280;7737;51.578;7.268;2022-08-04T22:21:17;100883.53;;;22.94;100.00
15272;BME280;7737;51.578;7.268;2022-08-04T22:23:43;100886.63;;;22.99;100.00
15272;BME280;7737;51.578;7.268;2022-08-04T22:26:17;100885.00;;;23.06;100.00
15272;BME280;7737;51.578;7.268;2022-08-04T22:28:44;100881.00;;;22.83;100.00
15272;BME280;7737;51.578;7.268;2022-08-04T22:31:11;100883.03;;;22.81;100.00
15272;BME280;7737;51.578;7.268;2022-08-04T22:33:40;100890.91;;;23.01;100.00
15272;BME280;7737;51.578;7.268;2022-08-04T22:36:07;100885.91;;;22.79;100.00
15272;BME280;7737;51.578;7.268;2022-08-04T22:38:35;100885.63;;;22.73;100.00
15272;BME280;7737;51.578;7.268;2022-08-04T22:41:04;100890.16;;;22.82;100.00
15272;BME280;7737;51.578;7.268;2022-08-04T22:43:31;100894.47;;;23.02;100.00
15272;BME280;7737;51.578;7.268;2022-08-04T22:45:58;100907.34;;;23.00;100.00
15272;BME280;7737;51.578;7.268;2022-08-04T22:48:25;100932.09;;;22.87;100.00
15272;BME280;7737;51.578;7.268;2022-08-04T22:50:52;100933.75;;;22.98;100.00
15272;BME280;7737;51.578;7.268;2022-08-04T22:53:18;100932.34;;;22.94;100.00
15272;BME280;7737;51.578;7.268;2022-08-04T22:55:46;100911.31;;;23.06;100.00
15272;BME280;7737;51.578;7.268;2022-08-04T22:58:13;100904.13;;;22.87;100.00
15272;BME280;7737;51.578;7.268;2022-08-04T23:00:40;100900.75;;;22.75;100.00
15272;BME280;7737;51.578;7.268;2022-08-04T23:03:06;100896.94;;;22.68;100.00
15272;BME280;7737;51.578;7.268;2022-08-04T23:05:33;100881.63;;;22.77;100.00
15272;BME280;7737;51.578;7.268;2022-08-04T23:08:00;100867.09;;;22.68;100.00
15272;BME280;7737;51.578;7.268;2022-08-04T23:10:26;100874.53;;;22.57;100.00
15272;BME280;7737;51.578;7.268;2022-08-04T23:12:54;100880.09;;;22.65;100.00
15272;BME280;7737;51.578;7.268;2022-08-04T23:15:21;100844.38;;;22.42;100.00
15272;BME280;7737;51.578;7.268;2022-08-04T23:17:47;100824.38;;;22.43;100.00
15272;BME280;7737;51.578;7.268;2022-08-04T23:20:15;100814.97;;;22.47;100.00
15272;BME280;7737;51.578;7.268;2022-08-04T23:22:42;100826.34;;;22.51;100.00
15272;BME280;7737;51.578;7.268;2022-08-04T23:25:09;100821.31;;;22.28;100.00
15272;BME280;7737;51.578;7.268;2022-08-04T23:27:36;100816.13;;;22.44;100.00
15272;BME280;7737;51.578;7.268;2022-08-04T23:30:05;100811.75;;;22.61;100.00
15272;BME280;7737;51.578;7.268;2022-08-04T23:32:32;100786.38;;;21.79;100.00
15272;BME280;7737;51.578;7.268;2022-08-04T23:34:59;100775.84;;;21.66;100.00
15272;BME280;7737;51.578;7.268;2022-08-04T23:37:25;100787.78;;;22.02;100.00
15272;BME280;7737;51.578;7.268;2022-08-04T23:39:52;100769.63;;;21.37;100.00
15272;BME280;7737;51.578;7.268;2022-08-04T23:42:18;100743.00;;;21.52;100.00
15272;BME280;7737;51.578;7.268;2022-08-04T23:44:45;100737.31;;;21.45;100.00
15272;BME280;7737;51.578;7.268;2022-08-04T23:47:13;100732.31;;;21.50;100.00
15272;BME280;7737;51.578;7.268;2022-08-04T23:49:39;100718.91;;;21.58;100.00
15272;BME280;7737;51.578;7.268;2022-08-04T23:52:06;100715.47;;;21.66;100.00
15272;BME280;7737;51.578;7.268;2022-08-04T23:54:32;100711.56;;;21.32;100.00
15272;BME280;7737;51.578;7.268;2022-08-04T23:56:59;100702.06;;;21.08;100.00
15272;BME280;7737;51.578;7.268;2022-08-04T23:59:25;100717.81;;;21.03;100.00
